Time;durP1;ratioP1;P1;durP2;ratioP2;P2;SDS_P1;SDS_P2;PMS_P1;PMS_P2;Temp;Humidity;BMP_temperature;BMP_pressure;BME280_temperature;BME280_humidity;BME280_pressure;Samples;Min_cycle;Max_cycle;Signal;HPM_P1;HPM_P2
2023/05/07 00:00:15;;;;;;;5.95;2.08;;;15.20;99.90;;;;;;5011909;28;20030;-50
2023/05/07 00:02:41;;;;;;;2.95;1.55;;;15.20;99.90;;;;;;5011809;28;20037;-50
2023/05/07 00:05:07;;;;;;;2.28;1.52;;;15.30;99.90;;;;;;5011913;28;20034;-48
2023/05/07 00:07:32;;;;;;;6.35;2.25;;;15.30;99.90;;;;;;5011922;28;20104;-46
2023/05/07 00:09:58;;;;;;;6.30;2.50;;;15.30;99.90;;;;;;5011631;28;20537;-47
2023/05/07 00:12:24;;;;;;;3.75;1.75;;;15.20;99.90;;;;;;5011381;28;20021;-50
2023/05/07 00:14:49;;;;;;;3.60;2.22;;;15.20;99.90;;;;;;5011877;28;20022;-50
2023/05/07 00:17:15;;;;;;;4.75;2.00;;;15.20;99.90;;;;;;5011810;28;20104;-47
2023/05/07 00:19:41;;;;;;;3.05;1.60;;;15.10;99.90;;;;;;5011749;28;20032;-49
2023/05/07 00:22:07;;;;;;;3.42;1.52;;;15.10;99.90;;;;;;5011160;28;20056;-46
2023/05/07 00:24:33;;;;;;;3.63;1.63;;;15.10;99.90;;;;;;5011997;28;20116;-45
2023/05/07 00:26:59;;;;;;;5.88;2.25;;;15.20;99.90;;;;;;5011584;28;20061;-46
2023/05/07 00:29:25;;;;;;;3.38;1.80;;;15.20;99.90;;;;;;5010309;28;20414;-49
2023/05/07 00:31:50;;;;;;;6.03;2.10;;;15.20;99.90;;;;;;5011380;28;20096;-46
2023/05/07 00:34:16;;;;;;;7.28;2.60;;;15.20;99.90;;;;;;5011487;28;20053;-49
2023/05/07 00:36:42;;;;;;;6.50;3.00;;;15.10;99.90;;;;;;5009162;28;20380;-50
2023/05/07 00:39:08;;;;;;;4.80;2.72;;;15.10;99.90;;;;;;5011463;28;20441;-48
2023/05/07 00:41:33;;;;;;;5.38;2.95;;;15.00;99.90;;;;;;5010926;28;20021;-49
2023/05/07 00:44:00;;;;;;;6.25;2.60;;;15.00;99.90;;;;;;5011478;28;20057;-47
2023/05/07 00:46:26;;;;;;;5.43;2.40;;;15.00;99.90;;;;;;5011464;28;20025;-46
2023/05/07 00:48:52;;;;;;;6.03;3.03;;;15.00;99.90;;;;;;5011475;28;20470;-50
2023/05/07 00:51:19;;;;;;;4.97;2.75;;;15.00;99.90;;;;;;5010821;28;20026;-46
2023/05/07 00:53:46;;;;;;;5.63;3.10;;;14.90;99.90;;;;;;5011540;28;20093;-47
2023/05/07 00:56:12;;;;;;;4.97;3.30;;;14.80;99.90;;;;;;5011544;28;20026;-48
2023/05/07 00:58:38;;;;;;;5.68;2.90;;;14.80;99.90;;;;;;5011524;28;20092;-47
2023/05/07 01:01:04;;;;;;;5.15;2.90;;;14.70;99.90;;;;;;5009762;28;20047;-47
2023/05/07 01:03:29;;;;;;;4.90;3.08;;;14.70;99.90;;;;;;5009991;28;20038;-50
2023/05/07 01:05:57;;;;;;;5.53;3.30;;;14.60;99.90;;;;;;5011122;28;20120;-46
2023/05/07 01:08:26;;;;;;;4.97;3.30;;;14.60;99.90;;;;;;5009877;28;20429;-47
2023/05/07 01:10:52;;;;;;;5.72;3.20;;;14.60;99.90;;;;;;5010898;28;20032;-47
2023/05/07 01:13:20;;;;;;;6.55;3.65;;;14.60;99.90;;;;;;5009777;28;20038;-48
2023/05/07 01:15:46;;;;;;;6.70;3.10;;;14.60;99.90;;;;;;5011274;28;20116;-47
2023/05/07 01:18:12;;;;;;;6.25;3.13;;;14.60;99.90;;;;;;5009960;28;20514;-46
2023/05/07 01:20:38;;;;;;;4.30;2.65;;;14.50;99.90;;;;;;5010664;28;20091;-46
2023/05/07 01:23:05;;;;;;;5.50;2.95;;;14.50;99.90;;;;;;5009718;28;20478;-47
2023/05/07 01:25:31;;;;;;;5.20;2.85;;;14.40;99.90;;;;;;5009946;28;20030;-49
2023/05/07 01:28:02;;;;;;;4.18;2.70;;;14.40;99.90;;;;;;5009693;28;20064;-48
2023/05/07 01:30:31;;;;;;;5.10;2.95;;;14.40;99.90;;;;;;5009331;28;20030;-47
2023/05/07 01:33:08;;;;;;;4.43;2.80;;;14.30;99.90;;;;;;5009352;28;20026;-47
2023/05/07 01:35:39;;;;;;;5.18;2.92;;;14.30;99.90;;;;;;5009503;28;20080;-47
2023/05/07 01:38:05;;;;;;;4.88;2.88;;;14.30;99.90;;;;;;5010715;28;20112;-50
2023/05/07 01:40:32;;;;;;;5.18;2.85;;;14.30;99.90;;;;;;5009057;28;20030;-49
2023/05/07 01:42:58;;;;;;;6.88;3.00;;;14.20;99.90;;;;;;5010605;28;20053;-49
2023/05/07 01:45:25;;;;;;;6.00;2.63;;;14.20;99.90;;;;;;5009529;28;20055;-47
2023/05/07 01:47:52;;;;;;;4.05;2.40;;;14.20;99.90;;;;;;5011577;28;20045;-50
2023/05/07 01:50:20;;;;;;;5.43;3.00;;;14.30;99.90;;;;;;5014143;28;20391;-47
2023/05/07 01:52:47;;;;;;;4.93;3.00;;;14.30;99.90;;;;;;5012838;28;20037;-48
2023/05/07 01:55:13;;;;;;;5.00;3.15;;;14.30;99.90;;;;;;5013221;28;20034;-48
2023/05/07 01:57:38;;;;;;;4.70;2.92;;;14.30;99.90;;;;;;5013085;28;20034;-46
2023/05/07 02:00:06;;;;;;;5.30;3.53;;;14.30;99.90;;;;;;5012750;28;20049;-50
2023/05/07 02:02:41;;;;;;;6.10;2.65;;;14.30;99.90;;;;;;5014104;28;20108;-51
2023/05/07 02:05:13;;;;;;;5.35;3.33;;;14.20;99.90;;;;;;5013049;28;20674;-50
2023/05/07 02:07:40;;;;;;;7.95;3.88;;;14.20;99.90;;;;;;5012784;28;20029;-49
2023/05/07 02:10:06;;;;;;;6.25;3.47;;;14.20;99.90;;;;;;5012474;28;20111;-47
2023/05/07 02:12:32;;;;;;;5.95;3.22;;;14.20;99.90;;;;;;5012640;28;20041;-48
2023/05/07 02:14:58;;;;;;;6.53;3.35;;;14.20;99.90;;;;;;5012696;28;20030;-48
2023/05/07 02:17:23;;;;;;;6.70;3.30;;;14.20;99.90;;;;;;5012722;28;20498;-46
2023/05/07 02:19:50;;;;;;;5.97;3.10;;;14.10;99.90;;;;;;5012799;28;20375;-48
2023/05/07 02:22:15;;;;;;;7.25;3.58;;;14.10;99.90;;;;;;5012089;28;20089;-47
2023/05/07 02:24:41;;;;;;;4.97;3.15;;;14.10;99.90;;;;;;5012594;28;20030;-49
2023/05/07 02:27:07;;;;;;;5.65;3.28;;;14.10;99.90;;;;;;5012501;28;20030;-48
2023/05/07 02:29:33;;;;;;;5.75;3.17;;;14.10;99.90;;;;;;5012361;28;20034;-51
2023/05/07 02:31:59;;;;;;;6.03;3.13;;;14.10;99.90;;;;;;5013205;28;20183;-47
2023/05/07 02:34:24;;;;;;;6.53;3.67;;;14.00;99.90;;;;;;5012407;28;20037;-51
2023/05/07 02:36:50;;;;;;;9.93;3.20;;;14.00;99.90;;;;;;5013539;28;20033;-50
2023/05/07 02:39:19;;;;;;;4.70;2.85;;;14.00;99.90;;;;;;5012321;28;20026;-48
2023/05/07 02:41:45;;;;;;;6.80;2.80;;;14.00;99.90;;;;;;5012993;28;20026;-48
2023/05/07 02:44:11;;;;;;;4.60;2.80;;;14.00;99.90;;;;;;5013553;28;20045;-48
2023/05/07 02:46:38;;;;;;;4.95;2.92;;;14.00;99.90;;;;;;5012109;28;20486;-47
2023/05/07 02:49:08;;;;;;;5.20;2.40;;;14.00;99.90;;;;;;5012115;28;20026;-48
2023/05/07 02:51:34;;;;;;;4.43;2.90;;;14.00;99.90;;;;;;5011377;28;20030;-49
2023/05/07 02:54:02;;;;;;;5.20;2.88;;;13.90;99.90;;;;;;5013778;28;20025;-47
2023/05/07 02:56:30;;;;;;;4.45;2.70;;;13.90;99.90;;;;;;5011891;28;20034;-47
2023/05/07 02:58:56;;;;;;;4.30;2.72;;;13.90;99.90;;;;;;5012191;28;20113;-47
2023/05/07 03:01:25;;;;;;;;;;;13.90;99.90;;;;;;5011967;28;20036;-47
2023/05/07 03:04:03;;;;;;;4.57;2.85;;;13.90;99.90;;;;;;5011809;28;19916;-47
2023/05/07 03:06:29;;;;;;;5.63;3.63;;;13.90;99.90;;;;;;5011575;28;20034;-48
2023/05/07 03:08:55;;;;;;;5.57;3.20;;;13.90;99.90;;;;;;5012856;28;20104;-49
2023/05/07 03:11:21;;;;;;;5.30;2.80;;;13.90;99.90;;;;;;5012466;28;20026;-47
2023/05/07 03:13:48;;;;;;;4.72;2.85;;;14.00;99.90;;;;;;5013095;28;20282;-47
2023/05/07 03:16:15;;;;;;;5.75;3.08;;;14.00;99.90;;;;;;5011622;28;20095;-48
2023/05/07 03:18:41;;;;;;;5.72;3.42;;;14.00;99.90;;;;;;5011703;28;20305;-47
2023/05/07 03:21:06;;;;;;;6.60;3.33;;;13.90;99.90;;;;;;5012326;28;20455;-47
2023/05/07 03:23:32;;;;;;;6.20;3.30;;;13.90;99.90;;;;;;5011352;28;20079;-48
2023/05/07 03:25:58;;;;;;;5.63;3.15;;;13.90;99.90;;;;;;5011360;28;20045;-47
2023/05/07 03:28:23;;;;;;;7.40;3.53;;;13.90;99.90;;;;;;5011502;28;20121;-49
2023/05/07 03:30:54;;;;;;;5.40;3.85;;;13.90;99.90;;;;;;5010878;28;20482;-48
2023/05/07 03:33:20;;;;;;;7.07;4.20;;;13.90;99.90;;;;;;5012641;28;20075;-47
2023/05/07 03:35:47;;;;;;;6.20;3.97;;;13.90;99.90;;;;;;5012630;28;20056;-47
2023/05/07 03:38:18;;;;;;;4.95;3.47;;;13.90;99.90;;;;;;5011345;28;20034;-49
2023/05/07 03:40:43;;;;;;;7.13;4.22;;;13.90;99.90;;;;;;5010925;28;20033;-48
2023/05/07 03:43:09;;;;;;;5.47;3.10;;;13.90;99.90;;;;;;5011279;28;20040;-47
2023/05/07 03:45:38;;;;;;;5.35;3.90;;;14.00;99.90;;;;;;5011292;28;20030;-47
2023/05/07 03:48:24;;;;;;;6.18;4.10;;;14.00;99.90;;;;;;5012272;28;20038;-45
2023/05/07 03:50:53;;;;;;;8.05;4.07;;;13.90;99.90;;;;;;5010696;28;20064;-46
2023/05/07 03:53:20;;;;;;;7.75;3.78;;;13.90;99.90;;;;;;5011167;28;20033;-46
2023/05/07 03:55:45;;;;;;;6.70;4.03;;;13.90;99.90;;;;;;5012472;28;20026;-46
2023/05/07 03:58:11;;;;;;;5.60;3.58;;;13.90;99.90;;;;;;5011105;28;20033;-48
2023/05/07 04:00:38;;;;;;;6.47;3.67;;;13.90;99.90;;;;;;5010456;28;20034;-47
2023/05/07 04:03:13;;;;;;;6.75;3.50;;;13.80;99.90;;;;;;5010723;28;20026;-46
2023/05/07 04:05:38;;;;;;;5.05;3.20;;;13.80;99.90;;;;;;5012032;28;20548;-46
2023/05/07 04:08:05;;;;;;;5.70;3.70;;;13.80;99.90;;;;;;5012073;28;20037;-49
2023/05/07 04:10:38;;;;;;;6.13;3.30;;;13.80;99.90;;;;;;5010199;28;20030;-47
2023/05/07 04:13:08;;;;;;;5.85;3.28;;;13.80;99.90;;;;;;5010665;28;20030;-47
2023/05/07 04:15:35;;;;;;;6.68;3.70;;;13.90;99.90;;;;;;5010521;28;20076;-48
2023/05/07 04:18:01;;;;;;;6.82;4.10;;;13.90;99.90;;;;;;5010516;28;20025;-46
2023/05/07 04:20:27;;;;;;;6.57;4.13;;;13.90;99.90;;;;;;5010266;28;20064;-47
2023/05/07 04:22:59;;;;;;;8.02;4.95;;;13.90;99.90;;;;;;5010378;28;20034;-46
2023/05/07 04:25:26;;;;;;;8.77;4.82;;;13.90;99.90;;;;;;5010332;28;20398;-47
2023/05/07 04:27:55;;;;;;;8.10;5.53;;;13.90;99.90;;;;;;5010365;28;20030;-47
2023/05/07 04:30:21;;;;;;;7.13;4.88;;;13.90;99.90;;;;;;5009927;28;20037;-47
2023/05/07 04:32:48;;;;;;;8.45;4.50;;;13.90;99.90;;;;;;5010068;28;20030;-46
2023/05/07 04:35:14;;;;;;;5.93;3.85;;;13.90;99.90;;;;;;5011785;28;20025;-45
2023/05/07 04:37:41;;;;;;;7.03;4.65;;;14.00;99.90;;;;;;5010089;28;20036;-47
2023/05/07 04:40:07;;;;;;;6.20;4.45;;;14.00;99.90;;;;;;5011667;28;20033;-46
2023/05/07 04:42:33;;;;;;;6.75;3.95;;;14.00;99.90;;;;;;5011174;28;20094;-47
2023/05/07 04:45:02;;;;;;;6.55;3.78;;;14.00;99.90;;;;;;5010131;28;20038;-47
2023/05/07 04:47:29;;;;;;;7.57;3.80;;;14.10;99.90;;;;;;5010078;28;20084;-48
2023/05/07 04:49:54;;;;;;;5.82;3.70;;;14.10;99.90;;;;;;5011324;28;20453;-46
2023/05/07 04:52:20;;;;;;;7.35;4.07;;;14.10;99.90;;;;;;5009372;28;20026;-47
2023/05/07 04:54:46;;;;;;;7.78;4.25;;;14.10;99.90;;;;;;5011312;28;20026;-46
2023/05/07 04:57:13;;;;;;;7.00;4.20;;;14.00;99.90;;;;;;5009796;28;20029;-47
2023/05/07 04:59:39;;;;;;;6.13;4.00;;;14.00;99.90;;;;;;5009918;28;20056;-47
2023/05/07 05:02:05;;;;;;;5.75;3.55;;;14.10;99.90;;;;;;5009399;28;20057;-47
2023/05/07 05:04:31;;;;;;;8.20;4.28;;;14.10;99.90;;;;;;5009811;28;20034;-47
2023/05/07 05:06:58;;;;;;;6.13;4.28;;;14.20;99.90;;;;;;5010947;28;20030;-47
2023/05/07 05:09:24;;;;;;;7.28;4.55;;;14.20;99.90;;;;;;5009962;28;20398;-49
2023/05/07 05:11:50;;;;;;;9.75;4.80;;;14.30;99.90;;;;;;5010406;28;20041;-45
2023/05/07 05:14:16;;;;;;;6.85;4.28;;;14.30;99.90;;;;;;5009876;28;20057;-46
2023/05/07 05:16:42;;;;;;;7.60;4.45;;;14.40;99.90;;;;;;5009601;28;20483;-46
2023/05/07 05:19:07;;;;;;;8.82;5.13;;;14.40;99.90;;;;;;5009554;28;20062;-46
2023/05/07 05:21:37;;;;;;;10.73;5.80;;;14.40;99.90;;;;;;5009580;28;20030;-46
2023/05/07 05:24:07;;;;;;;10.68;5.63;;;14.50;99.90;;;;;;5013710;28;20034;-47
2023/05/07 05:26:32;;;;;;;9.75;4.97;;;14.50;99.90;;;;;;5013551;28;20355;-46
2023/05/07 05:28:58;;;;;;;9.43;4.97;;;14.60;99.90;;;;;;5013565;28;20040;-47
2023/05/07 05:31:26;;;;;;;8.25;4.82;;;14.70;99.90;;;;;;5012979;28;20038;-48
2023/05/07 05:33:52;;;;;;;7.55;4.57;;;14.80;99.90;;;;;;5014720;28;20156;-45
2023/05/07 05:36:17;;;;;;;8.25;4.90;;;14.80;99.90;;;;;;5014873;28;20069;-46
2023/05/07 05:38:45;;;;;;;8.75;6.10;;;14.90;99.90;;;;;;5014737;28;20036;-48
2023/05/07 05:41:12;;;;;;;9.65;5.45;;;15.00;99.90;;;;;;5013095;28;20052;-47
2023/05/07 05:43:37;;;;;;;8.95;5.50;;;15.00;99.90;;;;;;5013336;28;20490;-51
2023/05/07 05:46:04;;;;;;;10.68;5.85;;;15.10;99.90;;;;;;5014651;28;20034;-50
2023/05/07 05:48:30;;;;;;;10.20;6.03;;;15.20;99.90;;;;;;5013257;28;20034;-48
2023/05/07 05:50:57;;;;;;;11.18;6.07;;;15.20;99.90;;;;;;5012835;28;20044;-47
2023/05/07 05:53:23;;;;;;;8.75;5.60;;;15.30;99.90;;;;;;5013291;28;20120;-50
2023/05/07 05:55:49;;;;;;;9.35;5.53;;;15.40;99.90;;;;;;5013254;28;20084;-47
2023/05/07 05:58:16;;;;;;;10.50;5.93;;;15.50;99.90;;;;;;5013218;28;20026;-48
2023/05/07 06:00:48;;;;;;;9.50;6.07;;;15.50;99.90;;;;;;5012760;28;20049;-47
2023/05/07 06:03:14;;;;;;;9.45;5.72;;;15.50;99.90;;;;;;5012955;28;20034;-48
2023/05/07 06:05:41;;;;;;;8.80;5.57;;;15.60;99.90;;;;;;5012915;28;20038;-50
2023/05/07 06:08:08;;;;;;;8.80;5.68;;;15.60;99.90;;;;;;5014592;28;20026;-47
2023/05/07 06:10:36;;;;;;;12.02;5.32;;;15.80;99.90;;;;;;5012527;28;20482;-47
2023/05/07 06:13:04;;;;;;;9.95;5.07;;;15.90;99.90;;;;;;5014123;28;20051;-49
2023/05/07 06:15:32;;;;;;;6.22;3.70;;;15.90;99.90;;;;;;5012746;28;20490;-47
2023/05/07 06:18:03;;;;;;;8.40;4.93;;;16.10;99.90;;;;;;5012790;28;20030;-48
2023/05/07 06:20:28;;;;;;;8.15;4.47;;;16.20;99.90;;;;;;5012666;28;20084;-47
2023/05/07 06:22:54;;;;;;;7.93;4.72;;;16.30;99.90;;;;;;5012677;28;20030;-48
2023/05/07 06:25:20;;;;;;;8.82;4.32;;;16.30;99.90;;;;;;5012791;28;20040;-48
2023/05/07 06:27:46;;;;;;;8.10;4.22;;;16.40;99.90;;;;;;5012685;28;20030;-51
2023/05/07 06:30:12;;;;;;;7.45;4.55;;;16.30;99.90;;;;;;5012138;28;20034;-51
2023/05/07 06:32:40;;;;;;;6.05;3.80;;;16.30;99.90;;;;;;5012274;28;20052;-48
2023/05/07 06:35:07;;;;;;;6.05;3.50;;;16.30;99.90;;;;;;5012700;28;20029;-48
2023/05/07 06:37:38;;;;;;;;;;;16.30;99.90;;;;;;5013247;28;20505;-46
2023/05/07 06:40:06;;;;;;;5.32;3.40;;;16.30;99.90;;;;;;5012357;28;20400;-46
2023/05/07 06:42:35;;;;;;;;;;;16.30;99.90;;;;;;5012915;28;20025;-46
2023/05/07 06:45:17;;;;;;;6.72;3.15;;;16.30;99.90;;;;;;5012513;28;19948;-47
2023/05/07 06:47:43;;;;;;;5.60;3.08;;;16.30;99.90;;;;;;5012034;28;20495;-48
2023/05/07 06:50:09;;;;;;;5.88;2.97;;;16.20;99.90;;;;;;5011881;28;20449;-49
2023/05/07 06:52:35;;;;;;;5.30;2.97;;;16.20;99.90;;;;;;5011904;28;20483;-50
2023/05/07 06:55:02;;;;;;;5.22;2.60;;;16.20;99.90;;;;;;5012068;28;20524;-46
2023/05/07 06:57:27;;;;;;;4.93;2.63;;;16.30;99.90;;;;;;5013371;28;20058;-48
2023/05/07 06:59:53;;;;;;;5.47;2.63;;;16.30;99.90;;;;;;5012152;28;20195;-48
2023/05/07 07:02:20;;;;;;;3.88;2.50;;;16.40;99.90;;;;;;5011305;28;20086;-48
2023/05/07 07:04:48;;;;;;;4.63;2.72;;;16.40;99.90;;;;;;5011954;28;20091;-48
2023/05/07 07:07:14;;;;;;;7.35;2.50;;;16.50;99.90;;;;;;5013118;28;20030;-48
2023/05/07 07:09:41;;;;;;;3.40;2.10;;;16.60;99.90;;;;;;5012981;28;20030;-49
2023/05/07 07:12:08;;;;;;;4.55;2.28;;;16.70;99.90;;;;;;5011367;28;20125;-47
2023/05/07 07:14:37;;;;;;;3.83;2.00;;;16.90;99.90;;;;;;5011927;28;20076;-48
2023/05/07 07:17:04;;;;;;;5.32;2.60;;;17.00;99.90;;;;;;5011580;28;20428;-46
2023/05/07 07:19:30;;;;;;;3.70;1.92;;;17.10;99.90;;;;;;5012032;28;20026;-46
2023/05/07 07:21:57;;;;;;;4.25;2.60;;;17.20;99.90;;;;;;5011110;28;20564;-47
2023/05/07 07:24:23;;;;;;;2.72;1.70;;;17.30;99.90;;;;;;5011505;28;20030;-48
2023/05/07 07:26:55;;;;;;;4.70;2.05;;;17.20;99.90;;;;;;5011463;28;20033;-51
2023/05/07 07:29:21;;;;;;;3.65;1.75;;;17.30;99.90;;;;;;5011273;28;20105;-50
2023/05/07 07:31:51;;;;;;;4.32;2.30;;;17.50;99.90;;;;;;5010968;28;20037;-47
2023/05/07 07:34:18;;;;;;;3.50;2.05;;;17.60;99.90;;;;;;5011289;28;20083;-50
2023/05/07 07:36:45;;;;;;;6.00;2.40;;;17.80;99.90;;;;;;5011383;28;20026;-49
2023/05/07 07:39:10;;;;;;;5.03;2.22;;;18.10;99.90;;;;;;5011346;28;20026;-50
2023/05/07 07:41:37;;;;;;;3.53;1.80;;;18.20;99.90;;;;;;5012215;28;20042;-50
2023/05/07 07:44:06;;;;;;;2.88;1.83;;;18.30;99.90;;;;;;5010795;28;20425;-47
2023/05/07 07:46:34;;;;;;;3.10;1.90;;;18.40;99.90;;;;;;5010443;28;20112;-51
2023/05/07 07:49:00;;;;;;;3.65;2.00;;;18.40;99.90;;;;;;5010936;28;20485;-47
2023/05/07 07:51:27;;;;;;;4.00;2.00;;;18.50;99.90;;;;;;5026769;28;20030;-48
2023/05/07 07:53:53;;;;;;;2.72;1.88;;;18.50;99.90;;;;;;5012265;28;20032;-47
2023/05/07 07:56:18;;;;;;;4.75;2.40;;;18.60;99.90;;;;;;5027401;28;20113;-51
2023/05/07 07:58:45;;;;;;;6.68;2.40;;;18.80;99.90;;;;;;5012016;28;20543;-47
2023/05/07 08:01:12;;;;;;;4.47;1.75;;;19.00;99.90;;;;;;5026621;28;20030;-47
2023/05/07 08:03:38;;;;;;;5.53;3.10;;;19.30;99.90;;;;;;5012049;28;20057;-49
2023/05/07 08:06:04;;;;;;;4.05;2.40;;;19.60;99.90;;;;;;5012211;28;20240;-48
2023/05/07 08:08:32;;;;;;;3.97;2.00;;;19.80;99.90;;;;;;5027321;28;20490;-47
2023/05/07 08:10:59;;;;;;;2.83;1.50;;;20.10;99.90;;;;;;5010034;28;20030;-49
2023/05/07 08:13:30;;;;;;;2.70;1.75;;;20.20;99.90;;;;;;5027057;28;20486;-51
2023/05/07 08:15:55;;;;;;;2.22;1.48;;;20.40;99.90;;;;;;5010432;28;20026;-50
2023/05/07 08:18:23;;;;;;;3.38;1.92;;;20.40;99.90;;;;;;5010441;28;20053;-48
2023/05/07 08:20:48;;;;;;;2.20;1.45;;;20.40;99.90;;;;;;5026449;28;20030;-45
2023/05/07 08:23:18;;;;;;;4.40;2.78;;;20.30;99.90;;;;;;5026908;28;20034;-47
2023/05/07 08:25:45;;;;;;;4.03;2.05;;;20.40;99.90;;;;;;5026822;28;20034;-47
2023/05/07 08:28:11;;;;;;;1.95;1.20;;;20.40;99.90;;;;;;5010285;28;20030;-47
2023/05/07 08:30:38;;;;;;;2.42;1.25;;;20.30;99.90;;;;;;5009751;28;20083;-50
2023/05/07 08:33:04;;;;;;;2.72;1.23;;;20.00;99.90;;;;;;5010190;28;20033;-48
2023/05/07 08:35:30;;;;;;;3.53;1.85;;;19.90;99.90;;;;;;5011520;28;20022;-48
2023/05/07 08:37:56;;;;;;;3.10;1.40;;;20.00;99.90;;;;;;5011555;28;20030;-52
2023/05/07 08:40:26;;;;;;;1.40;1.20;;;20.00;99.90;;;;;;5026241;28;20517;-52
2023/05/07 08:42:53;;;;;;;1.80;1.08;;;20.00;99.90;;;;;;5009916;28;20512;-49
2023/05/07 08:45:23;;;;;;;2.75;1.20;;;20.00;99.90;;;;;;5026512;28;20049;-49
2023/05/07 08:47:55;;;;;;;2.10;1.10;;;20.00;99.90;;;;;;5010082;28;20034;-49
2023/05/07 08:50:23;;;;;;;1.70;1.33;;;20.00;99.90;;;;;;5009740;28;20549;-48
2023/05/07 08:52:50;;;;;;;2.95;1.30;;;20.00;99.90;;;;;;5026045;28;20114;-51
2023/05/07 08:55:18;;;;;;;1.98;1.17;;;20.10;99.90;;;;;;5010015;28;20117;-48
2023/05/07 08:57:44;;;;;;;1.85;1.20;;;20.20;99.90;;;;;;5025574;28;20034;-50
2023/05/07 09:00:11;;;;;;;3.00;1.08;;;20.20;99.90;;;;;;5009503;28;20026;-50
2023/05/07 09:02:38;;;;;;;2.70;1.17;;;20.30;99.90;;;;;;5009704;28;20406;-45
2023/05/07 09:05:05;;;;;;;4.38;1.20;;;20.50;99.90;;;;;;5026324;28;20136;-49
2023/05/07 09:07:31;;;;;;;1.40;1.05;;;20.60;99.90;;;;;;5026217;28;20092;-47
2023/05/07 09:09:59;;;;;;;1.85;1.13;;;21.00;99.90;;;;;;5009669;28;20088;-46
2023/05/07 09:12:25;;;;;;;1.40;0.90;;;21.20;99.90;;;;;;5009498;28;20087;-48
2023/05/07 09:14:50;;;;;;;3.88;2.30;;;21.10;99.90;;;;;;5009728;28;20033;-46
2023/05/07 09:17:17;;;;;;;1.23;0.95;;;21.50;99.90;;;;;;5009819;28;20394;-46
2023/05/07 09:19:47;;;;;;;1.35;0.88;;;21.50;99.90;;;;;;5026265;28;20026;-46
2023/05/07 09:22:15;;;;;;;1.85;0.95;;;21.50;99.90;;;;;;5009457;28;20113;-48
2023/05/07 09:24:53;;;;;;;1.67;1.10;;;21.50;99.90;;;;;;5010022;28;20397;-50
2023/05/07 09:27:22;;;;;;;4.30;2.22;;;21.30;99.90;;;;;;5026078;28;20034;-45
2023/05/07 09:29:48;;;;;;;2.38;1.27;;;21.50;99.90;;;;;;5026365;28;20041;-45
2023/05/07 09:32:15;;;;;;;1.27;1.00;;;21.80;99.90;;;;;;5025698;28;20080;-50
2023/05/07 09:34:42;;;;;;;1.45;1.00;;;22.00;99.90;;;;;;5026222;28;20026;-48
2023/05/07 09:37:08;;;;;;;4.22;2.30;;;22.10;99.90;;;;;;5026234;28;20064;-47
2023/05/07 09:39:45;;;;;;;2.53;1.20;;;22.30;99.90;;;;;;5009957;28;20080;-47
2023/05/07 09:42:14;;;;;;;1.88;1.13;;;22.40;99.90;;;;;;5009440;28;20137;-51
2023/05/07 09:44:42;;;;;;;3.97;1.55;;;22.50;99.90;;;;;;5009750;28;20586;-49
2023/05/07 09:47:18;;;;;;;2.00;1.40;;;22.50;99.90;;;;;;5009745;28;20490;-49
2023/05/07 09:49:47;;;;;;;2.55;1.52;;;22.50;99.90;;;;;;5025957;28;20034;-46
2023/05/07 09:52:16;;;;;;;3.65;1.55;;;22.60;99.90;;;;;;5009097;28;20026;-48
2023/05/07 09:54:49;;;;;;;3.15;1.60;;;22.80;99.90;;;;;;5009555;28;20030;-49
2023/05/07 09:57:19;;;;;;;3.40;1.88;;;23.00;99.90;;;;;;5009335;28;20022;-46
2023/05/07 09:59:50;;;;;;;1.58;1.25;;;23.30;99.90;;;;;;5009709;28;20779;-49
2023/05/07 10:02:20;;;;;;;2.70;1.20;;;23.40;99.60;;;;;;5025390;28;20569;-50
2023/05/07 10:04:50;;;;;;;2.00;1.20;;;23.50;99.90;;;;;;5009347;28;20398;-48
2023/05/07 10:07:21;;;;;;;1.50;1.00;;;23.50;98.10;;;;;;5009274;28;20037;-48
2023/05/07 10:09:50;;;;;;;3.90;1.80;;;23.50;98.70;;;;;;5029310;28;20076;-47
2023/05/07 10:12:30;;;;;;;1.92;1.08;;;23.50;99.00;;;;;;5012670;28;20478;-47
2023/05/07 10:14:56;;;;;;;2.88;1.15;;;23.50;97.10;;;;;;5014447;28;20056;-50
2023/05/07 10:17:23;;;;;;;2.63;0.80;;;23.60;95.70;;;;;;5029551;28;20510;-47
2023/05/07 10:19:50;;;;;;;2.42;1.30;;;23.10;96.50;;;;;;5013910;28;20022;-49
2023/05/07 10:22:17;;;;;;;2.53;1.40;;;22.80;98.00;;;;;;5012080;28;20623;-47
2023/05/07 10:24:47;;;;;;;;;;;22.90;98.50;;;;;;5013163;28;20426;-47
2023/05/07 10:27:17;;;;;;;2.65;1.10;;;22.70;99.40;;;;;;5013827;28;19981;-48
2023/05/07 10:29:57;;;;;;;1.92;1.20;;;22.80;99.00;;;;;;5012471;28;20026;-47
2023/05/07 10:32:33;;;;;;;2.92;1.63;;;22.60;99.30;;;;;;5013307;28;20026;-46
2023/05/07 10:35:02;;;;;;;1.67;1.10;;;22.50;99.90;;;;;;5012690;28;20033;-49
2023/05/07 10:37:29;;;;;;;2.47;1.63;;;22.50;99.90;;;;;;5012414;28;20164;-51
2023/05/07 10:39:57;;;;;;;2.20;1.30;;;22.50;99.80;;;;;;5028966;28;20115;-48
2023/05/07 10:42:24;;;;;;;2.72;1.25;;;22.50;99.30;;;;;;5028264;28;20037;-48
2023/05/07 10:44:52;;;;;;;2.13;1.00;;;22.50;99.90;;;;;;5012375;28;20038;-48
2023/05/07 10:47:25;;;;;;;1.13;1.00;;;22.30;99.90;;;;;;4996936;28;20102;-51
2023/05/07 10:50:04;;;;;;;6.28;3.35;;;22.30;99.90;;;;;;5028555;28;20034;-48
2023/05/07 10:52:31;;;;;;;2.67;1.17;;;22.40;99.90;;;;;;5028284;28;20022;-50
2023/05/07 10:55:18;;;;;;;1.35;1.10;;;22.50;99.90;;;;;;5012249;28;20050;-48
2023/05/07 10:57:49;;;;;;;3.45;1.40;;;22.60;99.90;;;;;;5011847;28;20108;-46
2023/05/07 11:00:24;;;;;;;2.85;1.50;;;22.70;99.90;;;;;;5027979;28;20032;-50
2023/05/07 11:02:59;;;;;;;;;;;22.80;99.90;;;;;;5012046;28;20030;-48
2023/05/07 11:05:31;;;;;;;2.10;1.08;;;22.80;99.90;;;;;;5028038;28;19920;-49
2023/05/07 11:08:13;;;;;;;3.25;1.30;;;22.70;99.90;;;;;;5011652;28;20036;-48
2023/05/07 11:10:55;;;;;;;1.67;1.20;;;22.60;99.90;;;;;;5027543;28;20100;-48
2023/05/07 11:13:43;;;;;;;3.72;1.58;;;22.50;99.90;;;;;;5011735;28;20033;-49
2023/05/07 11:16:33;;;;;;;1.60;1.00;;;22.40;99.90;;;;;;5011639;28;20126;-49
2023/05/07 11:19:50;;;;;;;2.40;1.25;;;22.40;99.90;;;;;;5011795;28;20402;-46
2023/05/07 11:22:34;;;;;;;2.90;1.20;;;22.40;99.90;;;;;;5011146;28;20041;-47
2023/05/07 11:25:19;;;;;;;2.50;1.20;;;22.30;99.90;;;;;;5012814;28;20049;-48
2023/05/07 11:27:47;;;;;;;3.30;1.23;;;22.30;99.90;;;;;;5011375;28;20056;-50
2023/05/07 11:30:19;;;;;;;2.17;1.20;;;22.20;99.90;;;;;;5010945;28;20037;-47
2023/05/07 11:32:48;;;;;;;4.22;1.30;;;22.20;99.90;;;;;;5011116;28;20054;-51
2023/05/07 11:35:16;;;;;;;3.35;1.33;;;22.20;99.90;;;;;;5027703;28;20025;-51
2023/05/07 11:37:45;;;;;;;1.98;1.30;;;22.10;99.90;;;;;;5011198;28;20064;-47
2023/05/07 11:40:13;;;;;;;3.42;1.02;;;22.10;99.90;;;;;;5010813;28;20033;-47
2023/05/07 11:42:42;;;;;;;2.00;1.20;;;22.10;99.90;;;;;;5012244;28;20040;-50
2023/05/07 11:45:09;;;;;;;2.30;1.40;;;22.10;99.90;;;;;;5012344;28;20073;-47
2023/05/07 11:47:35;;;;;;;1.98;1.33;;;22.10;99.50;;;;;;5012355;28;20079;-47
2023/05/07 11:50:08;;;;;;;2.90;1.40;;;22.30;99.90;;;;;;5012013;28;20537;-47
2023/05/07 11:52:34;;;;;;;2.58;1.30;;;22.40;99.90;;;;;;5012144;28;20036;-48
2023/05/07 11:55:01;;;;;;;1.92;1.20;;;22.40;99.90;;;;;;5012021;28;20041;-50
2023/05/07 11:57:28;;;;;;;4.13;1.35;;;22.40;99.90;;;;;;5012152;28;20479;-46
2023/05/07 11:59:58;;;;;;;2.17;1.20;;;22.30;99.80;;;;;;5012193;28;20057;-47
2023/05/07 12:02:24;;;;;;;2.22;1.30;;;22.30;99.60;;;;;;5011611;28;20099;-49
2023/05/07 12:04:53;;;;;;;2.10;1.13;;;22.20;99.00;;;;;;5011858;28;20036;-48
2023/05/07 12:07:18;;;;;;;2.20;1.40;;;22.20;99.80;;;;;;5012123;28;20046;-47
2023/05/07 12:09:45;;;;;;;2.38;1.20;;;22.10;99.50;;;;;;5011765;28;20026;-48
2023/05/07 12:12:11;;;;;;;1.95;1.20;;;22.10;99.90;;;;;;5011393;28;20025;-47
2023/05/07 12:14:41;;;;;;;2.83;1.60;;;22.20;99.90;;;;;;5011800;28;20390;-46
2023/05/07 12:17:08;;;;;;;2.45;1.10;;;22.10;99.90;;;;;;5012398;28;20438;-47
2023/05/07 12:19:35;;;;;;;2.08;1.40;;;22.10;99.10;;;;;;5011868;28;20426;-49
2023/05/07 12:22:03;;;;;;;2.53;1.30;;;22.00;99.90;;;;;;5011485;28;20443;-47
2023/05/07 12:24:29;;;;;;;2.60;1.38;;;22.00;99.80;;;;;;5011634;28;20042;-46
2023/05/07 12:26:54;;;;;;;2.33;1.30;;;22.00;99.80;;;;;;5011891;28;20037;-49
2023/05/07 12:29:23;;;;;;;1.85;1.33;;;22.00;99.90;;;;;;5011900;28;20038;-46
2023/05/07 12:31:50;;;;;;;2.13;1.20;;;21.90;99.90;;;;;;5010942;28;20121;-46
2023/05/07 12:34:16;;;;;;;1.77;1.20;;;21.80;99.90;;;;;;5011814;28;20029;-47
2023/05/07 12:36:42;;;;;;;1.50;1.10;;;21.80;99.90;;;;;;5011556;28;20489;-47
2023/05/07 12:39:08;;;;;;;1.55;0.90;;;21.80;99.90;;;;;;5011417;28;20034;-47
2023/05/07 12:41:58;;;;;;;2.28;1.20;;;21.80;99.90;;;;;;5010996;28;20026;-46
2023/05/07 12:44:34;;;;;;;2.00;1.10;;;21.90;99.90;;;;;;5011315;28;20091;-48
2023/05/07 12:47:03;;;;;;;2.55;1.40;;;21.80;99.70;;;;;;5010088;28;20034;-47
2023/05/07 12:49:29;;;;;;;3.70;1.30;;;21.80;99.80;;;;;;5011320;28;20029;-48
2023/05/07 12:51:55;;;;;;;2.15;1.27;;;21.80;99.90;;;;;;5010598;28;20030;-46